Terminal Aerodrome Forecast
Issued by NWS

Home | Current Version | Previous Version | Text Only | Print | Product List | Glossary On
Versions: 1 2 3 4 5 6 7 8 9 10 11 12 13 14 15 16 17
000
FTUS41 KBTV 302320
TAFMPV
TAF
KMPV 302320Z 3100/3124 20004KT P6SM SCT070 BKN200
     FM310800 20004KT P6SM VCSH BKN060
     FM311800 25006KT 5SM -SHRA BR SCT040 OVC060=

USA.gov is the U.S. government's official web portal to all federal, state and local government web resources and services.